テグシガルパ の空港の天気 - METARとTAF

トンコンティン国際空港 ( MHTG / TGU ) - ホンジュラス テグシガルパ
飛行場実況気象(Metar)
観測時間12/16 01:00 CST (12/16 07:00 UTC)
風向・風速静穏 0m/s
視程10km以上
天気現象
全天の8割程度の雲 雲底高度 850m
気温19℃
湿度78%
気圧1019hPa
METARMHTG 160700Z 00000KT 9999 BKN028 19/15 Q1019 A3009 NOSIG
過去の天気等 Google飛行場航空写真 Wunderground天気予報

過去48時間のMETAR

飛行場予報(TAF)
発表時間: 12/15 20:15 CST (12/16 02:15 UTC)
予報対象時間: 16日0時 CST ~ 17日0時 CST
風向・風速北 3m/s
視程10km以上
少しの雲 雲底高度 370m
全天の8割程度の雲 雲底高度 730m
16日9時 CST ~ 16日11時 CST に徐々に
風向・風速東北東 4m/s
全天の4割程度の雲 雲底高度 790m
16日19時 CST ~ 16日21時 CST に徐々に
風向・風速北 3m/s
TAF COR MHTG 160215Z 1606/1706 36006KT 9999 FEW012 BKN024 TX27/1620Z TN15/1612Z
BECMG 1615/1617 07008KT SCT026
BECMG 1701/1703 36006KT